createdAt,value
2019-02-20T00:00:50.444Z,2.30
2019-02-20T00:03:18.639Z,3.37
2019-02-20T00:05:46.714Z,2.40
2019-02-20T00:08:14.808Z,3.13
2019-02-20T00:10:42.853Z,4.53
2019-02-20T00:13:10.910Z,2.63
2019-02-20T00:15:39.322Z,3.10
2019-02-20T00:18:07.656Z,2.87
2019-02-20T00:20:35.991Z,2.80
2019-02-20T00:23:04.304Z,3.53
2019-02-20T00:25:32.364Z,3.10
2019-02-20T00:28:00.718Z,2.70
2019-02-20T00:30:28.794Z,3.37
2019-02-20T00:32:56.873Z,2.77
2019-02-20T00:35:25.197Z,3.77
2019-02-20T00:37:53.557Z,2.77
2019-02-20T00:40:21.755Z,2.33
2019-02-20T00:42:50.277Z,2.40
2019-02-20T00:45:36.559Z,3.37
2019-02-20T00:48:27.220Z,2.30
2019-02-20T00:51:03.660Z,1.93
2019-02-20T00:53:36.553Z,2.67
2019-02-20T00:56:05.806Z,2.20
2019-02-20T00:58:33.943Z,2.80
2019-02-20T01:01:02.017Z,2.17
2019-02-20T01:03:30.335Z,2.73
2019-02-20T01:05:58.388Z,1.50
2019-02-20T01:08:26.512Z,1.70
2019-02-20T01:10:54.608Z,2.10
2019-02-20T01:13:22.670Z,2.03
2019-02-20T01:15:50.753Z,2.13
2019-02-20T01:18:19.109Z,2.00
2019-02-20T01:20:47.141Z,2.27
2019-02-20T01:23:15.315Z,2.67
2019-02-20T01:25:43.357Z,2.03
2019-02-20T01:28:11.486Z,2.00
2019-02-20T01:30:39.534Z,2.37
2019-02-20T01:33:07.611Z,2.53
2019-02-20T01:35:35.657Z,2.00
2019-02-20T01:38:03.736Z,2.30
2019-02-20T01:40:31.821Z,2.07
2019-02-20T01:42:59.888Z,1.70
2019-02-20T01:45:27.962Z,1.80
2019-02-20T01:47:56.046Z,2.43
2019-02-20T01:50:24.182Z,1.80
2019-02-20T01:52:52.259Z,2.30
2019-02-20T01:55:20.323Z,2.00
2019-02-20T01:57:48.372Z,1.97
2019-02-20T02:00:17.143Z,2.10
2019-02-20T02:02:45.212Z,3.40
2019-02-20T02:05:15.763Z,1.97
2019-02-20T02:07:43.326Z,1.87
2019-02-20T02:10:11.400Z,2.23
2019-02-20T02:12:39.500Z,2.33
2019-02-20T02:15:07.654Z,1.93
2019-02-20T02:17:35.883Z,2.37
2019-02-20T02:20:04.160Z,2.07
2019-02-20T02:22:32.209Z,4.67
2019-02-20T02:25:00.290Z,2.57
2019-02-20T02:27:28.352Z,2.27
2019-02-20T02:29:56.423Z,2.10
2019-02-20T02:32:24.480Z,2.07
2019-02-20T02:34:52.579Z,2.10
2019-02-20T02:37:20.913Z,2.10
2019-02-20T02:39:49.237Z,2.80
2019-02-20T02:42:17.270Z,1.90
2019-02-20T02:44:45.317Z,2.53
2019-02-20T02:47:13.347Z,2.10
2019-02-20T02:49:41.416Z,2.20
2019-02-20T02:52:09.459Z,2.03
2019-02-20T02:54:38.679Z,2.00
2019-02-20T02:57:06.680Z,2.37
2019-02-20T02:59:34.719Z,1.83
2019-02-20T03:02:03.203Z,2.00
2019-02-20T03:04:31.278Z,2.70
2019-02-20T03:06:59.638Z,2.10
2019-02-20T03:09:27.745Z,2.03
2019-02-20T03:11:55.757Z,2.13
2019-02-20T03:14:24.388Z,1.77
2019-02-20T03:16:52.607Z,2.40
2019-02-20T03:19:20.652Z,1.87
2019-02-20T03:21:48.747Z,2.80
2019-02-20T03:24:17.872Z,2.47
2019-02-20T03:26:46.270Z,3.43
2019-02-20T03:29:14.353Z,2.83
2019-02-20T03:31:43.479Z,3.10
2019-02-20T03:34:11.736Z,3.57
2019-02-20T03:36:40.892Z,3.40
2019-02-20T03:39:09.061Z,3.20
2019-02-20T03:41:37.086Z,3.27
2019-02-20T03:44:05.523Z,4.50
2019-02-20T03:46:35.187Z,3.27
2019-02-20T03:49:03.362Z,3.93
2019-02-20T03:51:31.740Z,3.43
2019-02-20T03:53:59.791Z,3.60
2019-02-20T03:56:28.946Z,3.40
2019-02-20T03:58:57.380Z,4.10
2019-02-20T04:01:25.436Z,3.77
2019-02-20T04:03:53.506Z,3.70
2019-02-20T04:06:21.611Z,3.77
2019-02-20T04:08:49.655Z,3.27
2019-02-20T04:11:17.682Z,3.80
2019-02-20T04:13:46.023Z,3.90
2019-02-20T04:16:14.537Z,4.47
2019-02-20T04:18:43.389Z,3.40
2019-02-20T04:21:11.470Z,4.27
2019-02-20T04:23:39.560Z,3.27
2019-02-20T04:26:09.836Z,3.20
2019-02-20T04:28:37.717Z,3.63
2019-02-20T04:31:06.350Z,3.57
2019-02-20T04:33:34.457Z,5.60
2019-02-20T04:36:02.460Z,4.57
2019-02-20T04:38:30.551Z,4.30
2019-02-20T04:40:58.645Z,3.57
2019-02-20T04:43:27.245Z,3.50
2019-02-20T04:45:55.403Z,3.47
2019-02-20T04:48:23.545Z,3.40
2019-02-20T04:50:51.846Z,3.77
2019-02-20T04:53:19.961Z,4.07
2019-02-20T04:55:47.983Z,3.40
2019-02-20T04:58:20.785Z,3.50
2019-02-20T05:00:48.861Z,3.23
2019-02-20T05:03:16.951Z,3.30
2019-02-20T05:05:45.384Z,3.70
2019-02-20T05:08:13.431Z,3.63
2019-02-20T05:10:41.548Z,3.23
2019-02-20T05:13:09.579Z,3.97
2019-02-20T05:15:37.599Z,4.20
2019-02-20T05:18:05.941Z,3.20
2019-02-20T05:20:34.043Z,3.40
2019-02-20T05:23:02.066Z,3.63
2019-02-20T05:25:30.123Z,3.87
2019-02-20T05:27:58.154Z,3.17
2019-02-20T05:30:26.866Z,3.23
2019-02-20T05:32:54.953Z,3.03
2019-02-20T05:35:23.263Z,3.23
2019-02-20T05:37:51.323Z,3.10
2019-02-20T05:40:19.342Z,4.07
2019-02-20T05:42:48.330Z,3.20
2019-02-20T05:45:16.512Z,3.23
2019-02-20T05:47:44.840Z,3.27
2019-02-20T05:50:12.905Z,3.70
2019-02-20T05:52:40.983Z,3.40
2019-02-20T05:55:09.021Z,3.90
2019-02-20T05:57:37.078Z,3.07
2019-02-20T06:00:05.851Z,4.07
2019-02-20T06:02:33.915Z,4.07
2019-02-20T06:05:02.029Z,4.10
2019-02-20T06:07:30.339Z,4.13
2019-02-20T06:09:58.702Z,3.57
2019-02-20T06:12:26.767Z,4.90
2019-02-20T06:14:54.807Z,4.47
2019-02-20T06:17:22.841Z,4.30
2019-02-20T06:19:50.864Z,4.87
2019-02-20T06:22:18.958Z,3.53
2019-02-20T06:24:46.999Z,3.70
2019-02-20T06:27:15.290Z,3.67
2019-02-20T06:29:43.380Z,4.53
2019-02-20T06:32:11.446Z,3.77
2019-02-20T06:34:39.993Z,3.57
2019-02-20T06:37:08.377Z,3.60
2019-02-20T06:39:36.503Z,3.73
2019-02-20T06:42:04.577Z,4.83
2019-02-20T06:44:33.003Z,5.50
2019-02-20T06:47:01.101Z,3.37
2019-02-20T06:49:29.501Z,3.30
2019-02-20T06:51:57.648Z,3.40
2019-02-20T06:54:26.257Z,4.47
2019-02-20T06:56:54.319Z,3.23
2019-02-20T06:59:22.392Z,4.33
2019-02-20T07:01:51.584Z,4.23
2019-02-20T07:04:19.922Z,4.63
2019-02-20T07:07:19.751Z,4.17
2019-02-20T07:10:35.455Z,4.80
2019-02-20T07:13:29.507Z,3.80
2019-02-20T07:16:51.483Z,4.27
2019-02-20T07:20:04.674Z,5.60
2019-02-20T07:23:17.139Z,4.07
2019-02-20T07:26:34.224Z,4.03
2019-02-20T07:30:03.341Z,3.37
2019-02-20T07:32:33.591Z,3.17
2019-02-20T07:35:01.640Z,3.00
2019-02-20T07:37:29.677Z,3.30
2019-02-20T07:39:57.709Z,3.17
2019-02-20T07:42:26.380Z,3.40
2019-02-20T07:44:54.463Z,3.03
2019-02-20T07:47:22.490Z,3.67
2019-02-20T07:49:50.943Z,2.90
2019-02-20T07:52:20.028Z,3.10
2019-02-20T07:54:48.108Z,3.83
2019-02-20T07:57:16.452Z,3.50
2019-02-20T07:59:44.497Z,3.97
2019-02-20T08:02:12.623Z,3.60
2019-02-20T08:04:42.147Z,5.33
2019-02-20T08:07:10.320Z,4.23
2019-02-20T08:09:38.549Z,5.37
2019-02-20T08:12:06.993Z,5.33
2019-02-20T08:14:35.456Z,4.20
2019-02-20T08:17:03.712Z,4.83
2019-02-20T08:19:32.897Z,5.17
2019-02-20T08:22:01.001Z,6.40
2019-02-20T08:24:29.060Z,5.23
2019-02-20T08:26:57.500Z,5.97
2019-02-20T08:29:25.591Z,6.73
2019-02-20T08:31:54.059Z,6.07
2019-02-20T08:34:22.175Z,8.47
2019-02-20T08:36:50.321Z,9.60
2019-02-20T08:39:18.376Z,6.63
2019-02-20T08:41:46.412Z,6.37
2019-02-20T08:44:14.601Z,6.87
2019-02-20T08:46:42.630Z,6.30
2019-02-20T08:49:10.546Z,6.77
2019-02-20T08:51:38.683Z,6.23
2019-02-20T08:54:06.690Z,6.37
2019-02-20T08:56:34.707Z,5.83
2019-02-20T08:59:02.759Z,6.53
2019-02-20T09:01:30.829Z,5.63
2019-02-20T09:03:58.969Z,5.27
2019-02-20T09:06:27.001Z,4.73
2019-02-20T09:08:55.141Z,4.20
2019-02-20T09:11:23.187Z,4.33
2019-02-20T09:13:51.494Z,4.27
2019-02-20T09:16:20.941Z,4.53
2019-02-20T09:18:49.135Z,4.60
2019-02-20T09:21:17.238Z,6.30
2019-02-20T09:23:45.565Z,5.47
2019-02-20T09:26:13.572Z,7.57
2019-02-20T09:28:41.714Z,6.00
2019-02-20T09:31:09.844Z,5.50
2019-02-20T09:33:37.878Z,6.73
2019-02-20T09:36:05.944Z,5.73
2019-02-20T09:38:33.932Z,6.10
2019-02-20T09:41:01.967Z,6.70
2019-02-20T09:43:30.132Z,6.73
2019-02-20T09:45:58.195Z,6.70
2019-02-20T09:48:26.498Z,8.37
2019-02-20T09:50:54.801Z,7.87
2019-02-20T09:53:22.811Z,7.93
2019-02-20T09:55:51.828Z,7.57
2019-02-20T09:58:20.802Z,8.53
2019-02-20T10:00:49.199Z,8.13
2019-02-20T10:03:17.280Z,8.87
2019-02-20T10:05:46.489Z,8.77
2019-02-20T10:08:14.526Z,9.20
2019-02-20T10:10:42.604Z,9.07
2019-02-20T10:13:11.593Z,8.30
2019-02-20T10:15:39.664Z,8.27
2019-02-20T10:18:07.773Z,8.03
2019-02-20T10:20:37.114Z,7.70
2019-02-20T10:23:05.145Z,9.60
2019-02-20T10:25:33.226Z,8.17
2019-02-20T10:28:01.480Z,8.70
2019-02-20T10:30:29.821Z,8.43
2019-02-20T10:32:57.867Z,8.70
2019-02-20T10:35:25.915Z,8.30
2019-02-20T10:37:53.952Z,8.27
2019-02-20T10:40:22.054Z,8.67
2019-02-20T10:42:50.121Z,8.40
2019-02-20T10:45:18.152Z,9.03
2019-02-20T10:47:46.161Z,9.33
2019-02-20T10:50:14.673Z,8.37
2019-02-20T10:52:43.127Z,8.70
2019-02-20T10:55:11.491Z,9.30
2019-02-20T10:57:40.534Z,9.00
2019-02-20T11:00:23.527Z,8.93
2019-02-20T11:02:47.551Z,9.47
2019-02-20T11:05:15.699Z,8.93
2019-02-20T11:07:43.903Z,9.10
2019-02-20T11:10:11.968Z,8.77
2019-02-20T11:12:40.381Z,11.80
2019-02-20T11:15:08.632Z,8.77
2019-02-20T11:17:37.506Z,8.73
2019-02-20T11:20:06.207Z,7.90
2019-02-20T11:22:34.234Z,7.50
2019-02-20T11:25:02.264Z,7.57
2019-02-20T11:27:30.475Z,8.07
2019-02-20T11:29:58.650Z,7.83
2019-02-20T11:32:26.690Z,8.40
2019-02-20T11:34:54.741Z,8.43
2019-02-20T11:37:23.070Z,7.77
2019-02-20T11:39:53.991Z,8.53
2019-02-20T11:42:22.342Z,8.40
2019-02-20T11:44:50.648Z,8.40
2019-02-20T11:47:18.846Z,8.93
2019-02-20T11:49:46.888Z,7.97
2019-02-20T11:52:14.988Z,7.43
2019-02-20T11:54:43.349Z,11.33
2019-02-20T11:57:11.681Z,9.17
2019-02-20T11:59:39.699Z,9.03
2019-02-20T12:02:07.753Z,7.70
2019-02-20T12:04:36.164Z,7.50
2019-02-20T12:07:04.215Z,8.70
2019-02-20T12:09:32.552Z,8.47
2019-02-20T12:12:01.130Z,7.53
2019-02-20T12:14:29.188Z,7.67
2019-02-20T12:16:57.214Z,8.03
2019-02-20T12:19:25.701Z,8.00
2019-02-20T12:21:59.786Z,8.80
2019-02-20T12:24:27.806Z,7.77
2019-02-20T12:26:55.847Z,7.90
2019-02-20T12:29:23.885Z,8.27
2019-02-20T12:31:52.881Z,8.13
2019-02-20T12:34:21.433Z,7.47
2019-02-20T12:36:49.525Z,7.90
2019-02-20T12:39:18.574Z,7.93
2019-02-20T12:41:46.904Z,7.80
2019-02-20T12:44:14.975Z,7.80
2019-02-20T12:46:43.320Z,7.70
2019-02-20T12:49:11.527Z,7.20
2019-02-20T12:51:39.642Z,7.10
2019-02-20T12:54:07.741Z,7.13
2019-02-20T12:56:43.484Z,7.30
2019-02-20T12:59:07.824Z,8.13
2019-02-20T13:01:35.682Z,7.20
2019-02-20T13:04:03.863Z,6.60
2019-02-20T13:06:32.191Z,6.03
2019-02-20T13:09:00.209Z,4.87
2019-02-20T13:11:28.631Z,6.13
2019-02-20T13:13:57.140Z,6.27
2019-02-20T13:16:25.180Z,5.23
2019-02-20T13:18:53.942Z,5.07
2019-02-20T13:21:21.988Z,5.80
2019-02-20T13:23:50.363Z,5.17
2019-02-20T13:26:18.709Z,5.00
2019-02-20T13:28:46.732Z,4.77
2019-02-20T13:31:14.675Z,7.40
2019-02-20T13:33:42.962Z,5.70
2019-02-20T13:36:11.011Z,5.73
2019-02-20T13:38:39.046Z,5.33
2019-02-20T13:41:07.478Z,6.40
2019-02-20T13:43:35.486Z,5.27
2019-02-20T13:46:03.617Z,6.20
2019-02-20T13:48:31.632Z,5.37
2019-02-20T13:50:59.745Z,3.70
2019-02-20T13:53:27.741Z,4.37
2019-02-20T13:55:55.776Z,5.73
2019-02-20T13:58:24.109Z,4.10
2019-02-20T14:00:52.138Z,4.20
2019-02-20T14:03:20.168Z,3.87
2019-02-20T14:05:48.223Z,3.57
2019-02-20T14:08:16.298Z,3.67
2019-02-20T14:10:44.418Z,4.13
2019-02-20T14:13:12.420Z,3.87
2019-02-20T14:15:40.762Z,4.53
2019-02-20T14:18:08.870Z,4.83
2019-02-20T14:20:36.899Z,5.67
2019-02-20T14:23:06.911Z,6.33
2019-02-20T14:25:36.402Z,5.00
2019-02-20T14:28:04.757Z,5.17
2019-02-20T14:31:25.017Z,5.13
2019-02-20T14:34:02.025Z,5.00
2019-02-20T14:36:30.431Z,5.33
2019-02-20T14:38:58.801Z,4.73
2019-02-20T14:41:27.160Z,5.10
2019-02-20T14:43:55.236Z,5.73
2019-02-20T14:46:24.148Z,5.07
2019-02-20T14:48:52.193Z,4.90
2019-02-20T14:51:20.286Z,4.93
2019-02-20T14:53:48.508Z,6.23
2019-02-20T14:56:17.163Z,5.57
2019-02-20T14:58:45.902Z,5.40
2019-02-20T15:01:23.092Z,5.03
2019-02-20T15:03:51.485Z,4.80
2019-02-20T15:06:19.805Z,5.83
2019-02-20T15:08:49.189Z,5.30
2019-02-20T15:11:18.672Z,5.27
2019-02-20T15:13:55.424Z,5.13
2019-02-20T15:16:25.731Z,5.40
2019-02-20T15:18:56.220Z,5.93
2019-02-20T15:21:25.250Z,5.17
2019-02-20T15:24:00.938Z,6.37
2019-02-20T15:26:29.984Z,5.77
2019-02-20T15:28:58.571Z,5.23
2019-02-20T15:31:33.749Z,5.53
2019-02-20T15:33:58.182Z,6.53
2019-02-20T15:36:29.057Z,5.37
2019-02-20T15:39:04.554Z,6.03
2019-02-20T15:41:34.718Z,6.67
2019-02-20T15:44:02.866Z,6.30
2019-02-20T15:46:31.190Z,6.00
2019-02-20T15:48:59.290Z,5.53
2019-02-20T15:51:27.394Z,5.57
2019-02-20T15:53:55.743Z,5.33
2019-02-20T15:56:24.567Z,6.17
2019-02-20T15:58:52.732Z,9.27
2019-02-20T16:01:20.772Z,6.47
2019-02-20T16:03:48.921Z,6.27
2019-02-20T16:06:17.006Z,6.00
2019-02-20T16:08:45.110Z,5.47
2019-02-20T16:11:13.245Z,5.80
2019-02-20T16:13:41.425Z,5.90
2019-02-20T16:16:09.435Z,6.67
2019-02-20T16:18:37.845Z,5.30
2019-02-20T16:21:06.081Z,5.33
2019-02-20T16:23:34.180Z,6.37
2019-02-20T16:26:02.632Z,5.57
2019-02-20T16:28:33.873Z,4.70
2019-02-20T16:31:00.981Z,5.03
2019-02-20T16:33:29.290Z,5.47
2019-02-20T16:35:57.544Z,7.03
2019-02-20T16:38:26.051Z,5.33
2019-02-20T16:40:54.153Z,4.87
2019-02-20T16:43:22.307Z,4.33
2019-02-20T16:45:50.417Z,4.30
2019-02-20T16:48:18.528Z,4.77
2019-02-20T16:50:46.623Z,4.40
2019-02-20T16:53:14.660Z,4.20
2019-02-20T16:55:43.882Z,4.50
2019-02-20T16:58:12.196Z,6.37
2019-02-20T17:00:40.608Z,5.57
2019-02-20T17:03:09.057Z,6.30
2019-02-20T17:05:37.407Z,7.67
2019-02-20T17:08:05.523Z,9.50
2019-02-20T17:10:33.906Z,9.67
2019-02-20T17:13:03.390Z,10.73
2019-02-20T17:15:32.155Z,9.37
2019-02-20T17:18:00.660Z,8.10
2019-02-20T17:20:28.759Z,8.70
2019-02-20T17:22:56.866Z,7.93
2019-02-20T17:25:25.624Z,8.50
2019-02-20T17:27:53.656Z,8.03
2019-02-20T17:30:21.823Z,8.17
2019-02-20T17:32:51.060Z,6.53
2019-02-20T17:35:19.448Z,8.40
2019-02-20T17:37:47.465Z,6.97
2019-02-20T17:40:15.788Z,7.07
2019-02-20T17:42:44.622Z,6.40
2019-02-20T17:45:13.853Z,5.80
2019-02-20T17:47:42.874Z,5.33
2019-02-20T17:50:13.322Z,5.93
2019-02-20T17:52:41.382Z,5.33
2019-02-20T17:55:09.847Z,6.30
2019-02-20T17:57:37.994Z,5.13
2019-02-20T18:00:09.288Z,5.07
2019-02-20T18:02:39.044Z,4.77
2019-02-20T18:05:07.135Z,4.37
2019-02-20T18:07:35.555Z,5.00
2019-02-20T18:10:04.337Z,4.07
2019-02-20T18:12:32.801Z,4.87
2019-02-20T18:15:01.453Z,4.80
2019-02-20T18:17:29.845Z,4.50
2019-02-20T18:19:58.037Z,4.70
2019-02-20T18:22:26.118Z,4.67
2019-02-20T18:24:54.207Z,4.17
2019-02-20T18:27:22.226Z,4.73
2019-02-20T18:29:50.413Z,3.30
2019-02-20T18:32:18.480Z,3.80
2019-02-20T18:34:46.646Z,5.07
2019-02-20T18:37:14.868Z,3.40
2019-02-20T18:39:43.019Z,4.23
2019-02-20T18:42:11.209Z,3.60
2019-02-20T18:44:39.309Z,3.17
2019-02-20T18:47:07.721Z,3.60
2019-02-20T18:49:36.264Z,4.07
2019-02-20T18:52:04.303Z,3.23
2019-02-20T18:54:32.386Z,3.20
2019-02-20T18:57:00.555Z,3.30
2019-02-20T18:59:28.623Z,4.70
2019-02-20T19:01:56.667Z,4.37
2019-02-20T19:04:25.582Z,4.60
2019-02-20T19:06:53.769Z,3.63
2019-02-20T19:09:28.209Z,3.50
2019-02-20T19:13:04.680Z,4.17
2019-02-20T19:16:13.480Z,3.13
2019-02-20T19:19:32.990Z,9.73
2019-02-20T19:22:46.345Z,3.10
2019-02-20T19:26:20.414Z,3.30
2019-02-20T19:29:48.892Z,3.10
2019-02-20T19:32:46.436Z,3.87
2019-02-20T19:36:30.450Z,3.57
2019-02-20T19:39:39.311Z,4.47
2019-02-20T19:42:54.266Z,2.80
2019-02-20T19:46:41.706Z,3.07
2019-02-20T19:50:17.927Z,3.00
2019-02-20T19:53:28.615Z,3.33
2019-02-20T19:57:13.945Z,4.10
2019-02-20T20:00:36.154Z,4.10
2019-02-20T20:04:19.144Z,2.93
2019-02-20T20:07:49.030Z,2.60
2019-02-20T20:11:01.460Z,2.43
2019-02-20T20:13:58.827Z,2.70
2019-02-20T20:17:26.598Z,2.97
2019-02-20T20:21:05.770Z,3.67
2019-02-20T20:24:36.911Z,2.43
2019-02-20T20:28:25.217Z,2.40
2019-02-20T20:31:41.316Z,3.10
2019-02-20T20:34:57.771Z,3.00
2019-02-20T20:37:52.692Z,3.37
2019-02-20T20:41:33.650Z,2.70
2019-02-20T20:44:33.024Z,3.27
2019-02-20T20:47:52.230Z,2.77
2019-02-20T20:51:20.391Z,4.13
2019-02-20T20:54:52.586Z,3.03
2019-02-20T20:58:39.977Z,2.83
2019-02-20T21:01:55.088Z,2.87
2019-02-20T21:05:28.834Z,3.30
2019-02-20T21:08:55.003Z,2.73
2019-02-20T21:12:35.016Z,4.40
2019-02-20T21:15:54.273Z,2.83
2019-02-20T21:19:21.471Z,3.57
2019-02-20T21:22:37.293Z,2.63
2019-02-20T21:26:24.399Z,3.30
2019-02-20T21:29:33.610Z,3.37
2019-02-20T21:33:08.221Z,2.93
2019-02-20T21:36:34.202Z,3.87
2019-02-20T21:39:26.415Z,3.67
2019-02-20T21:42:36.013Z,4.03
2019-02-20T21:45:56.522Z,4.43
2019-02-20T21:49:02.843Z,2.90
2019-02-20T21:52:33.173Z,2.97
2019-02-20T21:55:49.031Z,3.07
2019-02-20T21:58:58.126Z,2.83
2019-02-20T22:02:13.730Z,2.90
2019-02-20T22:05:45.904Z,3.33
2019-02-20T22:09:12.113Z,2.90
2019-02-20T22:12:36.601Z,2.53
2019-02-20T22:15:50.501Z,2.73
2019-02-20T22:19:40.565Z,3.23
2019-02-20T22:22:52.760Z,3.10
2019-02-20T22:26:23.309Z,2.83
2019-02-20T22:29:50.196Z,3.20
2019-02-20T22:33:24.398Z,2.93
2019-02-20T22:36:19.398Z,3.03
2019-02-20T22:39:38.375Z,3.07
2019-02-20T22:42:55.923Z,2.93
2019-02-20T22:46:12.759Z,3.10
2019-02-20T22:49:20.033Z,3.40
2019-02-20T22:52:22.539Z,3.13
2019-02-20T22:55:55.904Z,3.57
2019-02-20T22:59:00.851Z,2.57
2019-02-20T23:02:41.603Z,3.10
2019-02-20T23:06:14.992Z,3.97
2019-02-20T23:09:30.179Z,2.40
2019-02-20T23:12:30.936Z,2.47
2019-02-20T23:14:59.132Z,2.60
2019-02-20T23:17:27.454Z,2.97
2019-02-20T23:19:55.615Z,3.03
2019-02-20T23:22:23.848Z,2.90
2019-02-20T23:24:51.921Z,2.73
2019-02-20T23:27:19.980Z,2.37
2019-02-20T23:29:48.130Z,2.83
2019-02-20T23:32:17.258Z,3.67
2019-02-20T23:34:45.294Z,2.40
2019-02-20T23:37:13.335Z,2.83
2019-02-20T23:39:41.396Z,5.30
2019-02-20T23:42:09.445Z,2.70
2019-02-20T23:44:37.495Z,2.60
2019-02-20T23:47:05.569Z,2.33
2019-02-20T23:49:33.639Z,3.20
2019-02-20T23:52:02.058Z,2.80
2019-02-20T23:54:30.196Z,2.73
2019-02-20T23:56:58.238Z,2.40
2019-02-20T23:59:26.309Z,2.40
